This is the latest recevied weather packets stored in our database for station/object TA2CAY. If no packets are shown the sender has not sent any weather packets the latest 10 day(s).
| Time | Temp. | Humidity | Pressure | Rain* | Wind** | Luminosity | Snow |
|---|---|---|---|---|---|---|---|
| 1777562627 | 18.33° C | 49% | 1024.3 hPa | - | - | - | - |
| 1777560826 | 20° C | 45% | 1024.4 hPa | - | - | - | - |
| 1777559025 | 25° C | 39% | 1024.1 hPa | - | - | - | - |
| 1777557224 | 24.44° C | 39% | 1024 hPa | - | - | - | - |
| 1777555423 | 20° C | 44% | 1024.3 hPa | - | - | - | - |
| 1777553622 | 21.67° C | 42% | 1024.3 hPa | - | - | - | - |
| 1777551821 | 21.67° C | 41% | 1024.3 hPa | - | - | - | - |
| 1777550021 | 22.22° C | 41% | 1024.5 hPa | - | - | - | - |
| 1777548220 | 18.89° C | 46% | 1025 hPa | - | - | - | - |
| 1777546419 | 18.89° C | 47% | 1025.1 hPa | - | - | - | - |
| 1777544618 | 18.33° C | 47% | 1025.3 hPa | - | - | - | - |
| 1777542817 | 18.89° C | 48% | 1025.4 hPa | - | - | - | - |
| 1777541016 | 18.89° C | 47% | 1025.5 hPa | - | - | - | - |
| 1777539215 | 18.89° C | 48% | 1025.7 hPa | - | - | - | - |
| 1777537415 | 18.33° C | 48% | 1026 hPa | - | - | - | - |
| 1777535614 | 17.22° C | 51% | 1026.4 hPa | - | - | - | - |
| 1777533813 | 17.22° C | 50% | 1026.6 hPa | - | - | - | - |
| 1777532012 | 17.22° C | 51% | 1026.9 hPa | - | - | - | - |
| 1777530211 | 16.11° C | 52% | 1027 hPa | - | - | - | - |
| 1777528410 | 16.11° C | 52% | 1027.5 hPa | - | - | - | - |
| 1777526609 | 15° C | 54% | 1027.7 hPa | - | - | - | - |
| 1777524809 | 14.44° C | 54% | 1027.7 hPa | - | - | - | - |
| 1777523008 | 14.44° C | 55% | 1027.7 hPa | - | - | - | - |
| 1777521207 | 13.33° C | 58% | 1028 hPa | - | - | - | - |
| 1777519406 | 13.33° C | 57% | 1027.7 hPa | - | - | - | - |
* Rain since midnight (hover to see other rain measurements)
** Current wind speed in m/s (hover to see current wind gust speed)